Flugplatz Paderborn Lippstadt

Bericht für EDLP

vom 26.07. um 17:20 UTC

Wind 8 kt aus 240°

Sichtweite 10 km oder mehr

Code: VCSH

gering bewölkt in 6300 ft

Temperatur 23.0°C

Taupunkt 13.0°C

Luftfeuchtigkeit 53%

Luftdruck 1010 hPa

EDLP 261720Z 24008KT 9999 VCSH FEW063TCU 23/13 Q1010
Keine Prognose (TAF) verfügbar.
Impressum